Time;durP1;ratioP1;P1;durP2;ratioP2;P2;SDS_P1;SDS_P2;PMS_P1;PMS_P2;Temp;Humidity;BMP_temperature;BMP_pressure;BME280_temperature;BME280_humidity;BME280_pressure;Samples;Min_cycle;Max_cycle;Signal;HPM_P1;HPM_P2
2023/09/27 00:03:14;;;;;;;17.27;11.90;;;;;;;;;;10110262;28;20057;-84
2023/09/27 00:08:11;;;;;;;16.30;12.65;;;;;;;;;;10106529;28;20466;-84
2023/09/27 00:13:06;;;;;;;16.70;12.88;;;;;;;;;;10108523;28;20052;-84
2023/09/27 00:18:00;;;;;;;19.95;13.07;;;;;;;;;;10106359;28;20136;-84
2023/09/27 00:22:54;;;;;;;18.85;12.50;;;;;;;;;;10110020;28;20477;-84
2023/09/27 00:27:48;;;;;;;15.20;12.10;;;;;;;;;;10105487;28;20072;-84
2023/09/27 00:32:44;;;;;;;17.70;12.75;;;;;;;;;;10105561;28;20504;-83
2023/09/27 00:37:39;;;;;;;17.23;13.75;;;;;;;;;;10097913;28;20079;-84
2023/09/27 00:42:33;;;;;;;19.65;13.23;;;;;;;;;;10107237;28;20423;-84
2023/09/27 00:47:27;;;;;;;20.58;12.75;;;;;;;;;;10107525;28;20114;-83
2023/09/27 00:52:21;;;;;;;18.35;13.95;;;;;;;;;;10086931;28;20404;-83
2023/09/27 00:57:15;;;;;;;17.75;13.20;;;;;;;;;;10086734;28;20057;-84
2023/09/27 01:02:09;;;;;;;20.75;12.45;;;;;;;;;;10105359;28;20048;-85
2023/09/27 01:07:04;;;;;;;40.35;13.65;;;;;;;;;;10087164;28;20142;-83
2023/09/27 01:11:58;;;;;;;18.50;13.63;;;;;;;;;;10110413;28;20056;-83
2023/09/27 01:16:52;;;;;;;16.77;12.90;;;;;;;;;;10104520;28;20472;-83
2023/09/27 01:21:46;;;;;;;20.17;12.88;;;;;;;;;;10111696;28;20137;-84
2023/09/27 01:26:40;;;;;;;23.55;13.27;;;;;;;;;;10094658;28;20049;-84
2023/09/27 01:31:33;;;;;;;16.35;12.77;;;;;;;;;;10093664;28;20060;-84
2023/09/27 01:36:27;;;;;;;17.67;13.05;;;;;;;;;;10095451;28;20051;-84
2023/09/27 01:41:21;;;;;;;17.33;12.52;;;;;;;;;;10110964;28;20056;-84
2023/09/27 01:46:15;;;;;;;25.85;15.07;;;;;;;;;;10111320;28;20408;-84
2023/09/27 01:51:08;;;;;;;22.70;13.25;;;;;;;;;;10111553;28;20059;-83
2023/09/27 01:56:02;;;;;;;16.65;12.63;;;;;;;;;;10111679;28;20052;-84
2023/09/27 02:00:56;;;;;;;20.15;12.88;;;;;;;;;;10093014;28;20496;-83
2023/09/27 02:05:52;;;;;;;20.92;13.57;;;;;;;;;;10110359;28;20143;-83
2023/09/27 02:10:46;;;;;;;22.15;13.32;;;;;;;;;;10111438;28;20065;-83
2023/09/27 02:15:39;;;;;;;18.88;13.52;;;;;;;;;;10100787;28;20455;-83
2023/09/27 02:20:33;;;;;;;16.13;11.73;;;;;;;;;;10091152;28;20085;-84
2023/09/27 02:25:28;;;;;;;14.55;10.45;;;;;;;;;;10109729;28;20037;-84
2023/09/27 02:30:22;;;;;;;15.90;11.63;;;;;;;;;;10108860;28;20087;-83
2023/09/27 02:35:20;;;;;;;17.25;10.35;;;;;;;;;;10108309;28;20114;-84
2023/09/27 02:40:15;;;;;;;12.82;11.50;;;;;;;;;;10109123;28;20059;-84
2023/09/27 02:45:12;;;;;;;15.77;11.52;;;;;;;;;;10107973;28;20041;-83
2023/09/27 02:50:11;;;;;;;17.45;12.05;;;;;;;;;;10090714;28;20057;-83
2023/09/27 02:55:08;;;;;;;;;;;;;;;;;;10096796;28;20045;-83
2023/09/27 03:00:06;;;;;;;14.73;11.20;;;;;;;;;;10107694;28;20283;-84
2023/09/27 03:05:02;;;;;;;16.27;11.95;;;;;;;;;;10096864;28;20041;-85
2023/09/27 03:09:59;;;;;;;20.30;10.98;;;;;;;;;;10107462;28;20045;-83
2023/09/27 03:14:54;;;;;;;17.30;13.70;;;;;;;;;;10091044;28;20415;-84
2023/09/27 03:19:49;;;;;;;15.15;13.63;;;;;;;;;;10090058;28;20517;-84
2023/09/27 03:24:44;;;;;;;17.73;12.45;;;;;;;;;;10090305;28;20056;-83
2023/09/27 03:29:39;;;;;;;17.05;14.73;;;;;;;;;;10089124;28;20053;-83
2023/09/27 03:34:34;;;;;;;22.60;13.15;;;;;;;;;;10090607;28;20190;-84
2023/09/27 03:39:28;;;;;;;16.23;12.95;;;;;;;;;;10089870;28;20072;-83
2023/09/27 03:44:24;;;;;;;19.90;13.82;;;;;;;;;;10088503;28;20075;-83
2023/09/27 03:49:18;;;;;;;22.65;15.45;;;;;;;;;;10089665;28;20933;-83
2023/09/27 03:54:12;;;;;;;18.27;14.60;;;;;;;;;;10088250;28;20063;-82
2023/09/27 03:59:06;;;;;;;17.90;14.77;;;;;;;;;;10116179;28;20040;-84
2023/09/27 04:04:03;;;;;;;20.63;13.82;;;;;;;;;;10092698;28;20128;-84
2023/09/27 04:08:58;;;;;;;17.03;14.43;;;;;;;;;;10090986;28;20048;-84
2023/09/27 04:13:53;;;;;;;21.25;14.95;;;;;;;;;;10114937;28;20053;-84
2023/09/27 04:18:46;;;;;;;19.77;14.35;;;;;;;;;;10109543;28;20044;-84
2023/09/27 04:23:41;;;;;;;20.38;14.85;;;;;;;;;;10107542;28;20086;-83
2023/09/27 04:28:36;;;;;;;20.83;14.93;;;;;;;;;;10108050;28;20045;-83
2023/09/27 04:33:30;;;;;;;20.02;14.82;;;;;;;;;;10121509;28;20454;-84
2023/09/27 04:38:24;;;;;;;19.83;15.50;;;;;;;;;;10106357;28;20464;-84
2023/09/27 04:43:18;;;;;;;22.15;15.45;;;;;;;;;;10113295;28;20052;-83
2023/09/27 04:48:14;;;;;;;24.67;15.32;;;;;;;;;;10116559;28;20048;-84
2023/09/27 04:53:07;;;;;;;27.67;14.23;;;;;;;;;;10118365;28;20423;-83
2023/09/27 04:58:02;;;;;;;20.83;14.57;;;;;;;;;;10113599;28;20052;-83
2023/09/27 05:02:55;;;;;;;23.20;16.05;;;;;;;;;;10115479;28;20133;-84
2023/09/27 05:07:49;;;;;;;25.63;14.90;;;;;;;;;;10118228;28;20356;-86
2023/09/27 05:12:43;;;;;;;17.73;13.93;;;;;;;;;;10136263;28;20059;-86
2023/09/27 05:17:38;;;;;;;20.52;16.42;;;;;;;;;;10124980;28;20406;-86
2023/09/27 05:22:33;;;;;;;21.58;15.90;;;;;;;;;;10110586;28;20059;-84
2023/09/27 05:27:27;;;;;;;25.08;16.15;;;;;;;;;;10110683;28;20140;-86
2023/09/27 05:32:23;;;;;;;18.80;15.43;;;;;;;;;;10114140;28;20056;-85
2023/09/27 05:37:17;;;;;;;18.60;14.57;;;;;;;;;;10114857;28;20114;-85
2023/09/27 05:42:11;;;;;;;23.00;15.95;;;;;;;;;;10115366;28;20041;-85
2023/09/27 05:47:07;;;;;;;21.77;16.27;;;;;;;;;;10117756;28;20052;-85
2023/09/27 05:52:02;;;;;;;19.08;14.48;;;;;;;;;;10123069;28;20487;-85
2023/09/27 05:56:57;;;;;;;21.20;16.48;;;;;;;;;;10111912;28;21367;-86
2023/09/27 06:01:52;;;;;;;21.52;16.55;;;;;;;;;;10109933;28;20052;-85
2023/09/27 06:06:49;;;;;;;22.50;13.25;;;;;;;;;;10119678;28;20049;-85
2023/09/27 06:11:45;;;;;;;17.75;13.38;;;;;;;;;;10109507;28;20053;-85
2023/09/27 06:16:39;;;;;;;19.40;14.32;;;;;;;;;;10108541;28;20103;-84
2023/09/27 06:21:33;;;;;;;20.35;13.77;;;;;;;;;;10094380;28;20048;-86
2023/09/27 06:26:28;;;;;;;19.30;13.93;;;;;;;;;;10113284;28;20053;-85
2023/09/27 06:31:22;;;;;;;18.17;12.75;;;;;;;;;;10110483;28;20041;-85
2023/09/27 06:36:17;;;;;;;19.38;12.93;;;;;;;;;;10111682;28;20076;-85
2023/09/27 06:41:11;;;;;;;14.93;11.63;;;;;;;;;;10112552;28;20469;-86
2023/09/27 06:46:11;;;;;;;17.25;12.93;;;;;;;;;;10109148;28;20053;-85
2023/09/27 06:51:07;;;;;;;20.58;13.48;;;;;;;;;;10110522;28;20061;-84
2023/09/27 06:56:05;;;;;;;17.08;11.77;;;;;;;;;;10118316;28;20197;-85
2023/09/27 07:01:00;;;;;;;17.38;12.70;;;;;;;;;;10122916;28;20445;-85
2023/09/27 07:05:54;;;;;;;15.00;11.50;;;;;;;;;;10110430;28;20394;-85
2023/09/27 07:10:48;;;;;;;15.02;13.20;;;;;;;;;;10113562;28;20040;-85
2023/09/27 07:15:45;;;;;;;19.88;12.77;;;;;;;;;;10106377;28;20049;-85
2023/09/27 07:20:41;;;;;;;20.80;12.57;;;;;;;;;;10108776;28;20052;-85
2023/09/27 07:25:37;;;;;;;16.98;13.65;;;;;;;;;;10108210;28;21422;-85
2023/09/27 07:30:34;;;;;;;16.25;12.77;;;;;;;;;;10106803;28;20037;-85
2023/09/27 07:35:33;;;;;;;23.45;15.73;;;;;;;;;;10109204;28;20046;-85
2023/09/27 07:40:27;;;;;;;19.88;13.93;;;;;;;;;;10109061;28;20127;-85
2023/09/27 07:45:21;;;;;;;20.90;14.27;;;;;;;;;;10089800;28;20432;-84
2023/09/27 07:50:15;;;;;;;18.45;14.40;;;;;;;;;;10111308;28;20052;-86
2023/09/27 07:55:12;;;;;;;24.17;12.40;;;;;;;;;;10113130;28;20128;-84
2023/09/27 08:00:08;;;;;;;17.17;14.27;;;;;;;;;;10107943;28;20411;-85
2023/09/27 08:05:10;;;;;;;19.70;14.38;;;;;;;;;;10105933;28;20492;-85
2023/09/27 08:10:06;;;;;;;26.30;14.63;;;;;;;;;;10107035;28;20061;-85
2023/09/27 08:15:14;;;;;;;17.15;13.75;;;;;;;;;;10113998;28;20076;-85
2023/09/27 08:20:11;;;;;;;17.38;13.88;;;;;;;;;;10135633;28;20144;-85
2023/09/27 08:25:14;;;;;;;21.02;12.95;;;;;;;;;;10119822;28;20114;-86
2023/09/27 08:30:11;;;;;;;22.60;13.45;;;;;;;;;;10114492;28;20053;-85
2023/09/27 08:35:06;;;;;;;20.85;14.38;;;;;;;;;;10116895;28;20123;-85
2023/09/27 08:40:00;;;;;;;20.65;14.20;;;;;;;;;;10123502;28;20620;-85
2023/09/27 08:44:54;;;;;;;18.65;12.50;;;;;;;;;;10114738;28;20064;-85
2023/09/27 08:49:49;;;;;;;18.67;11.95;;;;;;;;;;10096975;28;20045;-85
2023/09/27 08:54:43;;;;;;;16.88;9.60;;;;;;;;;;10114917;28;20098;-85
2023/09/27 08:59:38;;;;;;;15.32;8.30;;;;;;;;;;10113540;28;20155;-85
2023/09/27 09:04:32;;;;;;;13.20;8.38;;;;;;;;;;10096145;28;20048;-85
2023/09/27 09:09:28;;;;;;;13.57;7.63;;;;;;;;;;10113008;28;20073;-85
2023/09/27 09:14:38;;;;;;;10.38;8.38;;;;;;;;;;10111785;28;20452;-85
2023/09/27 09:19:34;;;;;;;13.30;9.30;;;;;;;;;;10112901;28;20053;-85
2023/09/27 09:24:41;;;;;;;14.38;10.13;;;;;;;;;;10120107;28;20053;-85
2023/09/27 09:29:50;;;;;;;12.20;8.68;;;;;;;;;;10113603;28;20071;-85
2023/09/27 09:35:13;;;;;;;9.45;8.25;;;;;;;;;;10112939;28;20049;-85
2023/09/27 09:40:14;;;;;;;16.75;8.38;;;;;;;;;;10113454;28;20052;-86
2023/09/27 09:45:12;;;;;;;8.27;7.22;;;;;;;;;;10111673;28;20091;-85
2023/09/27 09:50:08;;;;;;;13.23;7.80;;;;;;;;;;10112012;28;20495;-85
2023/09/27 09:55:03;;;;;;;17.42;9.25;;;;;;;;;;10109569;28;20075;-86
2023/09/27 10:00:18;;;;;;;25.77;11.32;;;;;;;;;;10095194;28;20051;-86
2023/09/27 10:05:12;;;;;;;12.95;8.23;;;;;;;;;;10111201;28;20467;-83
2023/09/27 10:10:08;;;;;;;12.63;10.15;;;;;;;;;;10109183;28;20049;-83
2023/09/27 10:15:03;;;;;;;19.30;9.77;;;;;;;;;;10111164;28;20147;-83
2023/09/27 10:20:26;;;;;;;15.68;11.75;;;;;;;;;;10094196;28;20136;-83
2023/09/27 10:25:32;;;;;;;20.35;14.15;;;;;;;;;;10119061;28;20132;-83
2023/09/27 10:30:26;;;;;;;12.98;7.78;;;;;;;;;;10110815;28;20547;-82
2023/09/27 10:35:28;;;;;;;11.00;8.13;;;;;;;;;;10103151;28;20119;-83
2023/09/27 10:40:59;;;;;;;15.07;8.20;;;;;;;;;;10118901;28;20132;-83
2023/09/27 10:45:57;;;;;;;17.85;9.25;;;;;;;;;;10110418;28;20136;-82
2023/09/27 10:50:53;;;;;;;8.32;7.53;;;;;;;;;;10110283;28;20045;-83
2023/09/27 10:55:47;;;;;;;14.52;8.07;;;;;;;;;;10110634;28;20045;-82
2023/09/27 11:00:55;;;;;;;15.80;7.65;;;;;;;;;;10108231;28;20067;-82
2023/09/27 11:05:49;;;;;;;8.40;7.47;;;;;;;;;;10108440;28;20124;-82
2023/09/27 11:10:43;;;;;;;12.05;8.07;;;;;;;;;;10118713;28;20041;-83
2023/09/27 11:15:40;;;;;;;13.90;8.27;;;;;;;;;;10108656;28;20061;-84
2023/09/27 11:20:35;;;;;;;10.65;7.55;;;;;;;;;;10091616;28;20472;-83
2023/09/27 11:25:31;;;;;;;13.85;8.05;;;;;;;;;;10107946;28;20045;-82
2023/09/27 11:30:32;;;;;;;9.77;7.00;;;;;;;;;;10108380;28;20041;-83
2023/09/27 11:35:26;;;;;;;16.20;8.80;;;;;;;;;;10106615;28;20068;-83
2023/09/27 11:40:34;;;;;;;15.85;9.10;;;;;;;;;;10108323;28;20166;-83
2023/09/27 11:45:28;;;;;;;18.63;9.52;;;;;;;;;;10115541;28;20115;-82
2023/09/27 11:50:23;;;;;;;12.98;8.35;;;;;;;;;;10105818;28;20052;-81
2023/09/27 11:55:18;;;;;;;9.85;7.68;;;;;;;;;;10114140;28;20103;-84
2023/09/27 12:00:15;;;;;;;10.35;7.70;;;;;;;;;;10106388;28;20029;-85
2023/09/27 12:05:11;;;;;;;14.70;9.38;;;;;;;;;;10104632;28;20048;-85
2023/09/27 12:10:08;;;;;;;19.50;8.15;;;;;;;;;;10105309;28;20048;-86
2023/09/27 12:15:08;;;;;;;15.98;8.27;;;;;;;;;;10107557;28;20053;-85
2023/09/27 12:20:03;;;;;;;15.45;8.65;;;;;;;;;;10107095;28;20127;-86
2023/09/27 12:24:57;;;;;;;17.52;8.82;;;;;;;;;;10101343;28;20060;-85
2023/09/27 12:29:53;;;;;;;13.15;7.47;;;;;;;;;;10105427;28;20495;-85
2023/09/27 12:34:47;;;;;;;14.35;7.68;;;;;;;;;;10107891;28;20075;-86
2023/09/27 12:39:41;;;;;;;13.57;9.52;;;;;;;;;;10107047;28;20037;-85
2023/09/27 12:44:36;;;;;;;13.75;7.72;;;;;;;;;;10115525;28;20044;-85
2023/09/27 12:49:30;;;;;;;12.90;7.57;;;;;;;;;;10107353;28;20049;-85
2023/09/27 12:54:24;;;;;;;10.65;8.18;;;;;;;;;;10113487;28;20045;-85
2023/09/27 12:59:19;;;;;;;10.27;7.20;;;;;;;;;;10105761;28;20114;-87
2023/09/27 13:04:13;;;;;;;12.73;8.38;;;;;;;;;;10109948;28;20071;-86
2023/09/27 13:09:07;;;;;;;18.17;8.57;;;;;;;;;;10129990;28;20057;-86
2023/09/27 13:14:01;;;;;;;24.67;9.93;;;;;;;;;;10121752;28;20064;-86
2023/09/27 13:18:55;;;;;;;18.83;7.72;;;;;;;;;;10111403;28;20037;-85
2023/09/27 13:23:50;;;;;;;10.55;7.57;;;;;;;;;;10115352;28;20074;-85
2023/09/27 13:28:44;;;;;;;17.42;7.05;;;;;;;;;;10111001;28;20539;-85
2023/09/27 13:33:38;;;;;;;16.88;7.03;;;;;;;;;;10116808;28;20033;-85
2023/09/27 13:38:32;;;;;;;13.38;6.80;;;;;;;;;;10111442;28;20077;-86
2023/09/27 13:43:26;;;;;;;12.23;7.50;;;;;;;;;;10112610;28;20496;-86
2023/09/27 13:48:22;;;;;;;13.20;7.07;;;;;;;;;;10111622;28;20065;-85
2023/09/27 13:53:16;;;;;;;19.27;7.18;;;;;;;;;;10117661;28;20080;-86
2023/09/27 13:58:11;;;;;;;7.82;6.97;;;;;;;;;;10115015;28;20124;-86
2023/09/27 14:03:06;;;;;;;13.90;6.90;;;;;;;;;;10109380;28;20429;-85
2023/09/27 14:08:01;;;;;;;9.70;5.68;;;;;;;;;;10111193;28;20500;-85
2023/09/27 14:12:56;;;;;;;17.75;7.07;;;;;;;;;;10111712;28;20388;-85
2023/09/27 14:17:50;;;;;;;14.52;7.07;;;;;;;;;;10110132;28;20393;-86
2023/09/27 14:22:44;;;;;;;12.65;7.20;;;;;;;;;;10115431;28;20162;-86
2023/09/27 14:27:38;;;;;;;13.90;5.78;;;;;;;;;;10110924;28;20072;-86
2023/09/27 14:32:35;;;;;;;12.25;6.05;;;;;;;;;;10109691;28;20044;-86
2023/09/27 14:37:29;;;;;;;12.13;5.72;;;;;;;;;;10092941;28;20052;-86
2023/09/27 14:42:23;;;;;;;9.82;5.38;;;;;;;;;;10109641;28;20120;-85
2023/09/27 14:47:17;;;;;;;19.77;5.13;;;;;;;;;;10109115;28;20449;-86
2023/09/27 14:52:11;;;;;;;13.68;5.28;;;;;;;;;;10108537;28;20111;-86
2023/09/27 14:57:05;;;;;;;12.70;5.95;;;;;;;;;;10127276;28;20415;-87
2023/09/27 15:02:00;;;;;;;17.70;5.63;;;;;;;;;;10112694;28;20503;-87
2023/09/27 15:06:53;;;;;;;11.38;5.43;;;;;;;;;;10111700;28;20044;-88
2023/09/27 15:11:48;;;;;;;19.33;5.45;;;;;;;;;;10113688;28;20049;-87
2023/09/27 15:16:42;;;;;;;14.27;5.65;;;;;;;;;;10108875;28;20470;-88
2023/09/27 15:21:37;;;;;;;8.15;4.43;;;;;;;;;;10106858;28;20067;-87
2023/09/27 15:26:32;;;;;;;12.38;5.88;;;;;;;;;;10106038;28;20048;-86
2023/09/27 15:31:26;;;;;;;17.65;4.45;;;;;;;;;;10106930;28;20048;-87
2023/09/27 15:36:20;;;;;;;12.27;5.18;;;;;;;;;;10107168;28;20050;-87
2023/09/27 15:41:34;;;;;;;12.10;4.88;;;;;;;;;;10103439;28;20554;-87
2023/09/27 15:46:29;;;;;;;8.95;4.53;;;;;;;;;;10107108;28;20128;-87
2023/09/27 15:51:22;;;;;;;10.30;4.25;;;;;;;;;;10114351;28;20049;-87
2023/09/27 15:56:17;;;;;;;12.15;4.53;;;;;;;;;;10107315;28;20114;-87
2023/09/27 16:01:12;;;;;;;12.32;5.00;;;;;;;;;;10106892;28;20075;-86
2023/09/27 16:06:05;;;;;;;12.60;4.95;;;;;;;;;;10107919;28;20045;-87
2023/09/27 16:11:00;;;;;;;8.73;4.82;;;;;;;;;;10106732;28;20462;-86
2023/09/27 16:15:53;;;;;;;11.02;4.80;;;;;;;;;;10109231;28;20053;-86
2023/09/27 16:20:48;;;;;;;12.68;4.57;;;;;;;;;;10122577;28;20040;-86
2023/09/27 16:25:43;;;;;;;11.20;4.72;;;;;;;;;;10106359;28;20052;-87
2023/09/27 16:30:36;;;;;;;19.27;5.65;;;;;;;;;;10118267;28;20083;-86
2023/09/27 16:35:31;;;;;;;13.93;4.80;;;;;;;;;;10106379;28;20131;-86
2023/09/27 16:40:26;;;;;;;14.05;4.47;;;;;;;;;;10115270;28;20053;-85
2023/09/27 16:45:20;;;;;;;10.38;5.50;;;;;;;;;;10114683;28;20076;-85
2023/09/27 16:50:14;;;;;;;11.15;4.80;;;;;;;;;;10115489;28;20084;-86
2023/09/27 16:55:09;;;;;;;9.70;4.70;;;;;;;;;;10115768;28;20051;-86
2023/09/27 17:00:06;;;;;;;8.30;4.60;;;;;;;;;;10119276;28;20060;-85
2023/09/27 17:04:59;;;;;;;9.82;4.40;;;;;;;;;;10124561;28;20155;-86
2023/09/27 17:09:54;;;;;;;14.10;6.20;;;;;;;;;;10116913;28;20405;-86
2023/09/27 17:14:48;;;;;;;11.65;5.00;;;;;;;;;;10118541;28;20080;-85
2023/09/27 17:19:42;;;;;;;8.45;4.97;;;;;;;;;;10115560;28;20069;-86
2023/09/27 17:24:36;;;;;;;7.43;4.22;;;;;;;;;;10114412;28;20056;-86
2023/09/27 17:29:30;;;;;;;15.90;5.45;;;;;;;;;;10116614;28;20063;-86
2023/09/27 17:34:25;;;;;;;7.93;3.97;;;;;;;;;;10140656;28;20139;-86
2023/09/27 17:39:19;;;;;;;9.43;5.10;;;;;;;;;;10152321;28;20078;-85
2023/09/27 17:44:13;;;;;;;11.90;6.30;;;;;;;;;;10151133;28;20056;-84
2023/09/27 17:49:07;;;;;;;13.52;6.13;;;;;;;;;;10140911;28;20052;-84
2023/09/27 17:54:02;;;;;;;12.95;5.45;;;;;;;;;;10141360;28;20123;-85
2023/09/27 17:58:56;;;;;;;7.57;4.47;;;;;;;;;;10148780;28;20055;-85
2023/09/27 18:03:49;;;;;;;8.43;5.40;;;;;;;;;;10148964;28;20068;-87
2023/09/27 18:08:43;;;;;;;6.38;5.18;;;;;;;;;;10148118;28;20048;-85
2023/09/27 18:13:37;;;;;;;8.30;4.50;;;;;;;;;;10129047;28;20075;-84
2023/09/27 18:18:33;;;;;;;12.27;5.60;;;;;;;;;;10135578;28;20095;-84
2023/09/27 18:23:27;;;;;;;12.73;5.45;;;;;;;;;;10118571;28;20049;-85
2023/09/27 18:28:24;;;;;;;13.43;4.80;;;;;;;;;;10132692;28;20106;-85
2023/09/27 18:33:18;;;;;;;8.57;5.15;;;;;;;;;;10135227;28;20047;-85
2023/09/27 18:38:12;;;;;;;12.48;5.28;;;;;;;;;;10141064;28;20052;-85
2023/09/27 18:43:07;;;;;;;9.00;4.93;;;;;;;;;;10129256;28;20048;-85
2023/09/27 18:48:07;;;;;;;10.45;5.18;;;;;;;;;;10150347;28;20049;-85
2023/09/27 18:53:03;;;;;;;8.23;4.50;;;;;;;;;;10162761;28;20041;-85
2023/09/27 18:57:58;;;;;;;12.40;6.32;;;;;;;;;;10161667;28;20056;-85
2023/09/27 19:02:52;;;;;;;8.18;4.70;;;;;;;;;;10155408;28;20052;-87
2023/09/27 19:07:46;;;;;;;7.30;3.95;;;;;;;;;;10118050;28;20044;-86
2023/09/27 19:12:41;;;;;;;8.63;4.60;;;;;;;;;;10113237;28;20063;-85
2023/09/27 19:17:34;;;;;;;8.57;4.97;;;;;;;;;;10107930;28;20060;-85
2023/09/27 19:22:29;;;;;;;11.15;5.00;;;;;;;;;;10116882;28;20056;-85
2023/09/27 19:27:24;;;;;;;8.80;5.00;;;;;;;;;;10129169;28;20048;-83
2023/09/27 19:32:18;;;;;;;16.33;4.57;;;;;;;;;;10143759;28;20067;-84
2023/09/27 19:37:12;;;;;;;15.63;7.25;;;;;;;;;;10139125;28;20045;-83
2023/09/27 19:42:06;;;;;;;10.60;5.43;;;;;;;;;;10147029;28;20044;-84
2023/09/27 19:47:02;;;;;;;8.43;4.50;;;;;;;;;;10157263;28;20045;-83
2023/09/27 19:51:57;;;;;;;6.13;3.92;;;;;;;;;;10124099;28;20045;-86
2023/09/27 19:56:52;;;;;;;13.98;5.35;;;;;;;;;;10127823;28;20045;-86
2023/09/27 20:01:47;;;;;;;7.72;4.47;;;;;;;;;;10141001;28;20048;-86
2023/09/27 20:06:42;;;;;;;20.55;7.60;;;;;;;;;;10144762;28;20146;-86
2023/09/27 20:11:40;;;;;;;8.10;5.10;;;;;;;;;;10142338;28;20052;-86
2023/09/27 20:16:38;;;;;;;13.40;5.20;;;;;;;;;;10144152;28;20514;-87
2023/09/27 20:21:38;;;;;;;21.02;5.63;;;;;;;;;;10119977;28;20056;-85
2023/09/27 20:26:35;;;;;;;11.02;5.57;;;;;;;;;;10127424;28;20053;-86
2023/09/27 20:31:30;;;;;;;9.48;5.10;;;;;;;;;;10134903;28;20213;-86
2023/09/27 20:36:24;;;;;;;15.10;5.43;;;;;;;;;;10138725;28;20501;-86
2023/09/27 20:41:21;;;;;;;20.73;5.38;;;;;;;;;;10139602;28;20052;-86
2023/09/27 20:46:22;;;;;;;6.60;5.45;;;;;;;;;;10135317;28;20067;-86
2023/09/27 20:51:15;;;;;;;11.77;5.35;;;;;;;;;;10142213;28;20131;-86
2023/09/27 20:56:10;;;;;;;7.63;5.20;;;;;;;;;;10136291;28;20054;-87
2023/09/27 21:01:07;;;;;;;19.98;4.75;;;;;;;;;;10141572;28;20098;-87
2023/09/27 21:06:01;;;;;;;10.32;5.47;;;;;;;;;;10143787;28;20130;-86
2023/09/27 21:10:56;;;;;;;8.63;4.88;;;;;;;;;;10141051;28;20052;-87
2023/09/27 21:15:50;;;;;;;12.88;5.53;;;;;;;;;;10107042;28;20512;-85
2023/09/27 21:20:44;;;;;;;8.52;5.40;;;;;;;;;;10119513;28;20052;-85
2023/09/27 21:25:39;;;;;;;8.80;5.72;;;;;;;;;;10143866;28;20110;-86
2023/09/27 21:30:33;;;;;;;11.32;5.40;;;;;;;;;;10147361;28;20040;-86
2023/09/27 21:35:27;;;;;;;7.80;4.80;;;;;;;;;;10149612;28;20048;-86
2023/09/27 21:40:21;;;;;;;8.15;5.22;;;;;;;;;;10149477;28;20151;-86
2023/09/27 21:45:15;;;;;;;6.95;5.53;;;;;;;;;;10150613;28;20049;-86
2023/09/27 21:50:12;;;;;;;11.15;5.53;;;;;;;;;;10135085;28;20500;-87
2023/09/27 21:55:08;;;;;;;10.27;6.05;;;;;;;;;;10149430;28;20041;-87
2023/09/27 22:00:04;;;;;;;13.55;5.80;;;;;;;;;;10149399;28;20419;-87
2023/09/27 22:05:04;;;;;;;15.02;6.18;;;;;;;;;;10133566;28;20055;-86
2023/09/27 22:09:59;;;;;;;8.70;5.35;;;;;;;;;;10136850;28;20442;-87
2023/09/27 22:14:53;;;;;;;8.30;5.63;;;;;;;;;;10149302;28;20083;-87
2023/09/27 22:19:49;;;;;;;9.48;5.60;;;;;;;;;;10149267;28;20049;-86
2023/09/27 22:24:44;;;;;;;16.55;6.18;;;;;;;;;;10149692;28;20128;-87
2023/09/27 22:29:38;;;;;;;7.30;4.93;;;;;;;;;;10149736;28;20426;-87
2023/09/27 22:34:36;;;;;;;7.60;5.88;;;;;;;;;;10148720;28;20058;-87
2023/09/27 22:39:31;;;;;;;12.97;5.23;;;;;;;;;;10137399;28;20515;-87
2023/09/27 22:44:25;;;;;;;8.75;5.18;;;;;;;;;;10110886;28;20067;-87
2023/09/27 22:49:20;;;;;;;13.50;5.38;;;;;;;;;;10119266;28;20055;-86
2023/09/27 22:54:20;;;;;;;14.73;6.78;;;;;;;;;;10117021;28;20045;-87
2023/09/27 22:59:14;;;;;;;10.40;5.35;;;;;;;;;;10147373;28;20049;-87
2023/09/27 23:04:14;;;;;;;9.70;5.78;;;;;;;;;;10142454;28;20139;-88
2023/09/27 23:09:09;;;;;;;10.02;6.10;;;;;;;;;;10105608;28;20059;-87
2023/09/27 23:14:04;;;;;;;10.60;5.80;;;;;;;;;;10110982;28;20061;-88
2023/09/27 23:19:03;;;;;;;10.45;6.40;;;;;;;;;;10109478;28;20053;-87
2023/09/27 23:34:42;;;;;;;8.05;5.95;;;;;;;;;;10110629;28;20810;-88
2023/09/27 23:39:43;;;;;;;8.57;6.22;;;;;;;;;;10112677;28;20045;-87
2023/09/27 23:44:37;;;;;;;12.93;5.70;;;;;;;;;;10107927;28;20136;-87
2023/09/27 23:49:32;;;;;;;13.00;6.25;;;;;;;;;;10108577;28;20052;-88
2023/09/27 23:54:26;;;;;;;15.65;5.65;;;;;;;;;;10116633;28;20094;-87
2023/09/27 23:59:30;;;;;;;7.43;5.05;;;;;;;;;;10108635;28;20496;-87
